Valley Mills, IN

2:09 PM EST on December 02, 2016 (GMT -0500)
i-465 and MANN RD | | Change Station

Elev 670 ft 39.69 °N, 86.23 °W | Updated 4 seconds ago

Overcast
Overcast
41.3 °F
Feels Like 39 °F
N
4.0
Wind Variable Wind from WNW
Gusts 6.0 mph

Today
High -- | Low -- °F
--% Chance of Precip.
Yesterday
High -- | Low -- °F
Precip. -- in
Pressure 30.22 in
Visibility 10.0 miles
Clouds Few 2100 ft
Few 2700 ft
Overcast 3500 ft
Windchill 39 °F
Dew Point 30 °F
Humidity 65%
Rainfall 0.00 in
Snow Depth Not available.
7:48 AM 5:20 PM
Waxing Crescent, 10% visible
METAR KIND 021854Z 24009KT 10SM FEW021 FEW027 OVC035 04/00 A3020 RMK AO2 SLP233 T00440000
Pressure 30.22 in
Visibility 10.0 miles
Clouds Few 2100 ft
Few 2700 ft
Overcast 3500 ft
Windchill 39 °F
Dew Point 30 °F
Humidity 65%
Rainfall 0.00 in
Snow Depth Not available.
7:48 AM 5:20 PM
Waxing Crescent, 10% visible
METAR KIND 021854Z 24009KT 10SM FEW021 FEW027 OVC035 04/00 A3020 RMK AO2 SLP233 T00440000

10-Day Weather Forecast

Almanac

Astronomy

Dec. 02, 2016 Rise Set
Actual Time
Civil Twilight
Nautical Twilight
Astronomical Twilight
Moon
Length of Visible Light
Length of Day
Tomorrow will be .
, % of the Moon is Illuminated

Today's Extremes

State Highs State Lows

Community

WunderPhotos

Upload Photos

1,955,343 photos uploaded!

WunderBlog® & News

Nearby

Air Quality

  Air Quality AQ Index Pollutant
Not available.

Snow Depth

Station Depth Elevation

Earthquake Activity

City Distance Mag. Time & Date
Minimum magnitude displayed is 2.5.

Coastal Water Temperatures

Place Temperature

Stations

Nearby Weather Stations

Station Location Temp. Windchill Dew Point Humidity Wind Precip. Elev Updated Type
                   

Watches & Warnings

There are currently no watches in effect.